sensor_id;sensor_type;location;lat;lon;timestamp;temperature;humidity
25811;DHT22;13645;52.460;13.910;2023-06-14T00:05:58;12.80;99.90
25811;DHT22;13645;52.460;13.910;2023-06-14T00:08:25;12.90;99.90
25811;DHT22;13645;52.460;13.910;2023-06-14T00:10:52;12.90;99.90
25811;DHT22;13645;52.460;13.910;2023-06-14T00:13:19;12.90;99.90
25811;DHT22;13645;52.460;13.910;2023-06-14T00:15:46;12.90;99.90
25811;DHT22;13645;52.460;13.910;2023-06-14T00:18:14;12.90;99.90
25811;DHT22;13645;52.460;13.910;2023-06-14T00:20:41;12.90;99.90
25811;DHT22;13645;52.460;13.910;2023-06-14T00:23:09;12.90;99.90
25811;DHT22;13645;52.460;13.910;2023-06-14T00:25:36;12.90;99.90
25811;DHT22;13645;52.460;13.910;2023-06-14T00:28:02;12.80;99.90
25811;DHT22;13645;52.460;13.910;2023-06-14T00:30:29;12.80;99.90
25811;DHT22;13645;52.460;13.910;2023-06-14T00:32:58;12.80;99.90
25811;DHT22;13645;52.460;13.910;2023-06-14T00:35:25;12.80;99.90
25811;DHT22;13645;52.460;13.910;2023-06-14T00:37:52;12.80;99.90
25811;DHT22;13645;52.460;13.910;2023-06-14T00:40:21;12.90;99.90
25811;DHT22;13645;52.460;13.910;2023-06-14T00:42:48;12.80;99.90
25811;DHT22;13645;52.460;13.910;2023-06-14T00:45:15;12.80;99.90
25811;DHT22;13645;52.460;13.910;2023-06-14T00:47:43;12.80;99.90
25811;DHT22;13645;52.460;13.910;2023-06-14T00:50:10;12.80;99.90
25811;DHT22;13645;52.460;13.910;2023-06-14T00:52:38;12.80;99.90
25811;DHT22;13645;52.460;13.910;2023-06-14T00:55:05;12.80;99.90
25811;DHT22;13645;52.460;13.910;2023-06-14T00:57:32;12.90;99.90
25811;DHT22;13645;52.460;13.910;2023-06-14T00:59:59;12.90;99.90
25811;DHT22;13645;52.460;13.910;2023-06-14T01:02:26;12.80;99.90
25811;DHT22;13645;52.460;13.910;2023-06-14T01:04:53;12.80;99.90
25811;DHT22;13645;52.460;13.910;2023-06-14T01:07:43;12.80;99.90
25811;DHT22;13645;52.460;13.910;2023-06-14T01:13:05;12.60;99.90
25811;DHT22;13645;52.460;13.910;2023-06-14T01:15:34;12.50;99.90
25811;DHT22;13645;52.460;13.910;2023-06-14T01:18:02;12.40;99.90
25811;DHT22;13645;52.460;13.910;2023-06-14T01:20:33;12.30;99.90
25811;DHT22;13645;52.460;13.910;2023-06-14T01:23:03;12.30;99.90
25811;DHT22;13645;52.460;13.910;2023-06-14T01:25:30;12.30;99.90
25811;DHT22;13645;52.460;13.910;2023-06-14T01:28:00;12.30;99.90
25811;DHT22;13645;52.460;13.910;2023-06-14T01:30:30;12.20;99.90
25811;DHT22;13645;52.460;13.910;2023-06-14T01:33:00;12.20;99.90
25811;DHT22;13645;52.460;13.910;2023-06-14T01:35:27;12.20;99.90
25811;DHT22;13645;52.460;13.910;2023-06-14T01:37:54;12.20;99.90
25811;DHT22;13645;52.460;13.910;2023-06-14T01:40:21;12.10;99.90
25811;DHT22;13645;52.460;13.910;2023-06-14T01:42:50;12.10;99.90
25811;DHT22;13645;52.460;13.910;2023-06-14T01:45:18;12.10;99.90
25811;DHT22;13645;52.460;13.910;2023-06-14T01:47:47;12.10;99.90
25811;DHT22;13645;52.460;13.910;2023-06-14T01:50:14;12.00;99.90
25811;DHT22;13645;52.460;13.910;2023-06-14T01:52:42;12.00;99.90
25811;DHT22;13645;52.460;13.910;2023-06-14T01:55:09;12.00;99.90
25811;DHT22;13645;52.460;13.910;2023-06-14T01:57:36;12.00;99.90
25811;DHT22;13645;52.460;13.910;2023-06-14T02:00:04;12.00;99.90
25811;DHT22;13645;52.460;13.910;2023-06-14T02:02:34;12.00;99.90
25811;DHT22;13645;52.460;13.910;2023-06-14T02:05:02;12.00;99.90
25811;DHT22;13645;52.460;13.910;2023-06-14T02:07:29;12.00;99.90
25811;DHT22;13645;52.460;13.910;2023-06-14T02:09:56;12.10;99.90
25811;DHT22;13645;52.460;13.910;2023-06-14T02:12:23;12.00;99.90
25811;DHT22;13645;52.460;13.910;2023-06-14T02:14:49;12.10;99.90
25811;DHT22;13645;52.460;13.910;2023-06-14T02:17:16;12.10;99.90
25811;DHT22;13645;52.460;13.910;2023-06-14T02:19:43;12.10;99.90
25811;DHT22;13645;52.460;13.910;2023-06-14T02:22:10;12.00;99.90
25811;DHT22;13645;52.460;13.910;2023-06-14T02:24:37;12.00;99.90
25811;DHT22;13645;52.460;13.910;2023-06-14T02:27:04;12.00;99.90
25811;DHT22;13645;52.460;13.910;2023-06-14T02:29:31;12.00;99.90
25811;DHT22;13645;52.460;13.910;2023-06-14T02:31:58;12.00;99.90
25811;DHT22;13645;52.460;13.910;2023-06-14T02:34:25;12.00;99.90
25811;DHT22;13645;52.460;13.910;2023-06-14T02:36:52;11.90;99.90
25811;DHT22;13645;52.460;13.910;2023-06-14T02:39:19;11.90;99.90
25811;DHT22;13645;52.460;13.910;2023-06-14T02:41:47;11.90;99.90
25811;DHT22;13645;52.460;13.910;2023-06-14T02:44:14;11.90;99.90
25811;DHT22;13645;52.460;13.910;2023-06-14T02:46:41;11.90;99.90
25811;DHT22;13645;52.460;13.910;2023-06-14T02:49:11;11.90;99.90
25811;DHT22;13645;52.460;13.910;2023-06-14T02:51:37;11.90;99.90
25811;DHT22;13645;52.460;13.910;2023-06-14T02:54:04;11.90;99.90
25811;DHT22;13645;52.460;13.910;2023-06-14T02:56:31;11.80;99.90
25811;DHT22;13645;52.460;13.910;2023-06-14T02:58:58;11.80;99.90
25811;DHT22;13645;52.460;13.910;2023-06-14T03:01:26;11.70;99.90
25811;DHT22;13645;52.460;13.910;2023-06-14T03:04:01;11.70;99.90
25811;DHT22;13645;52.460;13.910;2023-06-14T03:06:30;11.80;99.90
25811;DHT22;13645;52.460;13.910;2023-06-14T03:08:57;11.80;99.90
25811;DHT22;13645;52.460;13.910;2023-06-14T03:11:27;11.80;99.90
25811;DHT22;13645;52.460;13.910;2023-06-14T03:13:53;11.80;99.90
25811;DHT22;13645;52.460;13.910;2023-06-14T03:16:22;11.80;99.90
25811;DHT22;13645;52.460;13.910;2023-06-14T03:18:52;11.80;99.90
25811;DHT22;13645;52.460;13.910;2023-06-14T03:21:21;11.80;99.90
25811;DHT22;13645;52.460;13.910;2023-06-14T03:23:48;11.80;99.90
25811;DHT22;13645;52.460;13.910;2023-06-14T03:26:15;11.80;99.90
25811;DHT22;13645;52.460;13.910;2023-06-14T03:28:45;11.80;99.90
25811;DHT22;13645;52.460;13.910;2023-06-14T03:31:12;11.90;99.90
25811;DHT22;13645;52.460;13.910;2023-06-14T03:33:40;12.00;99.90
25811;DHT22;13645;52.460;13.910;2023-06-14T03:36:07;12.00;99.90
25811;DHT22;13645;52.460;13.910;2023-06-14T03:38:34;12.10;99.90
25811;DHT22;13645;52.460;13.910;2023-06-14T03:41:01;12.20;99.90
25811;DHT22;13645;52.460;13.910;2023-06-14T03:43:28;12.30;99.90
25811;DHT22;13645;52.460;13.910;2023-06-14T03:45:56;12.40;99.90
25811;DHT22;13645;52.460;13.910;2023-06-14T03:48:23;12.50;99.90
25811;DHT22;13645;52.460;13.910;2023-06-14T03:50:50;12.50;99.90
25811;DHT22;13645;52.460;13.910;2023-06-14T03:53:17;12.50;99.90
25811;DHT22;13645;52.460;13.910;2023-06-14T03:55:44;12.60;99.90
25811;DHT22;13645;52.460;13.910;2023-06-14T03:58:15;12.60;99.90
25811;DHT22;13645;52.460;13.910;2023-06-14T04:00:42;12.70;99.90
25811;DHT22;13645;52.460;13.910;2023-06-14T04:03:09;12.80;99.90
25811;DHT22;13645;52.460;13.910;2023-06-14T04:05:37;12.80;99.90
25811;DHT22;13645;52.460;13.910;2023-06-14T04:08:04;12.80;99.90
25811;DHT22;13645;52.460;13.910;2023-06-14T04:10:35;12.90;99.90
25811;DHT22;13645;52.460;13.910;2023-06-14T04:13:02;12.90;99.90
25811;DHT22;13645;52.460;13.910;2023-06-14T04:15:29;13.00;99.90
25811;DHT22;13645;52.460;13.910;2023-06-14T04:17:56;13.10;99.90
25811;DHT22;13645;52.460;13.910;2023-06-14T04:20:24;13.10;99.90
25811;DHT22;13645;52.460;13.910;2023-06-14T04:22:51;13.20;99.90
25811;DHT22;13645;52.460;13.910;2023-06-14T04:25:19;13.30;99.90
25811;DHT22;13645;52.460;13.910;2023-06-14T04:27:49;13.40;99.90
25811;DHT22;13645;52.460;13.910;2023-06-14T04:30:16;13.40;99.90
25811;DHT22;13645;52.460;13.910;2023-06-14T04:32:43;13.50;99.90
25811;DHT22;13645;52.460;13.910;2023-06-14T04:35:10;13.60;99.90
25811;DHT22;13645;52.460;13.910;2023-06-14T04:37:38;13.60;99.90
25811;DHT22;13645;52.460;13.910;2023-06-14T04:40:08;13.70;99.90
25811;DHT22;13645;52.460;13.910;2023-06-14T04:42:38;13.80;99.90
25811;DHT22;13645;52.460;13.910;2023-06-14T04:45:07;13.80;99.90
25811;DHT22;13645;52.460;13.910;2023-06-14T04:47:35;13.90;99.90
25811;DHT22;13645;52.460;13.910;2023-06-14T04:50:04;13.90;99.90
25811;DHT22;13645;52.460;13.910;2023-06-14T04:52:31;13.90;99.90
25811;DHT22;13645;52.460;13.910;2023-06-14T04:54:59;13.90;99.90
25811;DHT22;13645;52.460;13.910;2023-06-14T04:57:26;14.00;99.90
25811;DHT22;13645;52.460;13.910;2023-06-14T04:59:53;14.10;99.90
25811;DHT22;13645;52.460;13.910;2023-06-14T05:02:22;14.20;99.90
25811;DHT22;13645;52.460;13.910;2023-06-14T05:04:50;14.20;99.90
25811;DHT22;13645;52.460;13.910;2023-06-14T05:07:17;14.30;99.90
25811;DHT22;13645;52.460;13.910;2023-06-14T05:09:45;14.40;99.90
25811;DHT22;13645;52.460;13.910;2023-06-14T05:12:12;14.40;99.90
25811;DHT22;13645;52.460;13.910;2023-06-14T05:14:38;14.50;99.90
25811;DHT22;13645;52.460;13.910;2023-06-14T05:17:06;14.50;99.90
25811;DHT22;13645;52.460;13.910;2023-06-14T05:19:33;14.60;99.90
25811;DHT22;13645;52.460;13.910;2023-06-14T05:22:00;14.60;99.90
25811;DHT22;13645;52.460;13.910;2023-06-14T05:24:27;14.70;99.90
25811;DHT22;13645;52.460;13.910;2023-06-14T05:26:56;14.70;99.90
25811;DHT22;13645;52.460;13.910;2023-06-14T05:29:23;14.70;99.90
25811;DHT22;13645;52.460;13.910;2023-06-14T05:31:49;14.70;99.90
25811;DHT22;13645;52.460;13.910;2023-06-14T05:34:16;14.70;99.90
25811;DHT22;13645;52.460;13.910;2023-06-14T05:36:43;14.80;99.90
25811;DHT22;13645;52.460;13.910;2023-06-14T05:39:10;14.80;99.90
25811;DHT22;13645;52.460;13.910;2023-06-14T05:41:37;14.80;99.90
25811;DHT22;13645;52.460;13.910;2023-06-14T05:44:04;14.90;99.90
25811;DHT22;13645;52.460;13.910;2023-06-14T05:46:30;14.90;99.90
25811;DHT22;13645;52.460;13.910;2023-06-14T05:48:57;14.90;99.90
25811;DHT22;13645;52.460;13.910;2023-06-14T05:51:24;15.00;99.90
25811;DHT22;13645;52.460;13.910;2023-06-14T05:53:54;15.00;99.90
25811;DHT22;13645;52.460;13.910;2023-06-14T05:56:21;15.10;99.90
25811;DHT22;13645;52.460;13.910;2023-06-14T05:58:49;15.00;99.90
25811;DHT22;13645;52.460;13.910;2023-06-14T06:01:15;15.00;99.90
25811;DHT22;13645;52.460;13.910;2023-06-14T06:03:43;15.00;99.90
25811;DHT22;13645;52.460;13.910;2023-06-14T06:06:13;15.00;99.90
25811;DHT22;13645;52.460;13.910;2023-06-14T06:08:40;15.00;99.90
25811;DHT22;13645;52.460;13.910;2023-06-14T06:11:07;15.00;99.90
25811;DHT22;13645;52.460;13.910;2023-06-14T06:13:34;15.00;99.90
25811;DHT22;13645;52.460;13.910;2023-06-14T06:16:03;15.10;99.90
25811;DHT22;13645;52.460;13.910;2023-06-14T06:18:30;15.20;99.90
25811;DHT22;13645;52.460;13.910;2023-06-14T06:20:57;15.20;99.90
25811;DHT22;13645;52.460;13.910;2023-06-14T06:23:24;15.20;99.90
25811;DHT22;13645;52.460;13.910;2023-06-14T06:25:51;15.40;99.90
25811;DHT22;13645;52.460;13.910;2023-06-14T06:28:18;15.60;99.90
25811;DHT22;13645;52.460;13.910;2023-06-14T06:30:45;15.80;99.90
25811;DHT22;13645;52.460;13.910;2023-06-14T06:33:12;16.00;99.90
25811;DHT22;13645;52.460;13.910;2023-06-14T06:35:40;16.10;99.90
25811;DHT22;13645;52.460;13.910;2023-06-14T06:38:07;16.20;99.90
25811;DHT22;13645;52.460;13.910;2023-06-14T06:40:35;16.40;99.10
25811;DHT22;13645;52.460;13.910;2023-06-14T06:43:02;16.50;89.60
25811;DHT22;13645;52.460;13.910;2023-06-14T06:45:29;16.70;92.30
25811;DHT22;13645;52.460;13.910;2023-06-14T06:47:57;16.80;77.90
25811;DHT22;13645;52.460;13.910;2023-06-14T06:50:24;17.00;80.30
25811;DHT22;13645;52.460;13.910;2023-06-14T06:52:51;17.40;57.30
25811;DHT22;13645;52.460;13.910;2023-06-14T06:55:19;17.80;53.60
25811;DHT22;13645;52.460;13.910;2023-06-14T06:57:46;18.00;25.50
25811;DHT22;13645;52.460;13.910;2023-06-14T07:00:13;18.40;20.00
25811;DHT22;13645;52.460;13.910;2023-06-14T07:02:41;18.50;14.70
25811;DHT22;13645;52.460;13.910;2023-06-14T07:05:08;18.70;1.00
25811;DHT22;13645;52.460;13.910;2023-06-14T07:07:35;18.70;1.00
25811;DHT22;13645;52.460;13.910;2023-06-14T07:10:03;18.70;1.00
25811;DHT22;13645;52.460;13.910;2023-06-14T07:12:32;18.60;3.00
25811;DHT22;13645;52.460;13.910;2023-06-14T07:15:00;18.50;2.20
25811;DHT22;13645;52.460;13.910;2023-06-14T07:17:27;18.40;9.70
25811;DHT22;13645;52.460;13.910;2023-06-14T07:19:54;18.40;1.00
25811;DHT22;13645;52.460;13.910;2023-06-14T07:22:21;18.30;3.50
25811;DHT22;13645;52.460;13.910;2023-06-14T07:24:48;18.10;5.10
25811;DHT22;13645;52.460;13.910;2023-06-14T07:27:14;18.20;5.80
25811;DHT22;13645;52.460;13.910;2023-06-14T07:29:41;18.00;11.80
25811;DHT22;13645;52.460;13.910;2023-06-14T07:32:08;18.10;13.60
25811;DHT22;13645;52.460;13.910;2023-06-14T07:34:35;17.90;10.60
25811;DHT22;13645;52.460;13.910;2023-06-14T07:37:02;17.90;17.00
25811;DHT22;13645;52.460;13.910;2023-06-14T07:39:29;17.80;21.60
25811;DHT22;13645;52.460;13.910;2023-06-14T07:41:56;17.80;23.50
25811;DHT22;13645;52.460;13.910;2023-06-14T07:44:23;17.80;23.30
25811;DHT22;13645;52.460;13.910;2023-06-14T07:46:50;17.90;17.00
25811;DHT22;13645;52.460;13.910;2023-06-14T07:49:16;17.90;22.60
25811;DHT22;13645;52.460;13.910;2023-06-14T07:51:44;18.00;21.00
25811;DHT22;13645;52.460;13.910;2023-06-14T07:54:11;18.20;7.30
25811;DHT22;13645;52.460;13.910;2023-06-14T07:56:38;18.30;8.90
25811;DHT22;13645;52.460;13.910;2023-06-14T07:59:07;18.50;8.50
25811;DHT22;13645;52.460;13.910;2023-06-14T08:01:34;18.60;1.00
25811;DHT22;13645;52.460;13.910;2023-06-14T08:04:01;18.70;1.00
25811;DHT22;13645;52.460;13.910;2023-06-14T08:06:28;18.60;1.00
25811;DHT22;13645;52.460;13.910;2023-06-14T08:08:55;18.60;1.00
25811;DHT22;13645;52.460;13.910;2023-06-14T08:11:22;18.50;1.00
25811;DHT22;13645;52.460;13.910;2023-06-14T08:13:50;18.50;1.00
25811;DHT22;13645;52.460;13.910;2023-06-14T08:16:17;18.70;1.00
25811;DHT22;13645;52.460;13.910;2023-06-14T08:18:44;18.90;1.00
25811;DHT22;13645;52.460;13.910;2023-06-14T08:21:11;19.00;1.00
25811;DHT22;13645;52.460;13.910;2023-06-14T08:23:39;19.20;1.00
25811;DHT22;13645;52.460;13.910;2023-06-14T08:26:06;19.30;1.00
25811;DHT22;13645;52.460;13.910;2023-06-14T08:28:32;19.40;1.00
25811;DHT22;13645;52.460;13.910;2023-06-14T08:30:59;19.30;1.00
25811;DHT22;13645;52.460;13.910;2023-06-14T08:33:26;19.30;1.00
25811;DHT22;13645;52.460;13.910;2023-06-14T08:35:53;19.20;1.00
25811;DHT22;13645;52.460;13.910;2023-06-14T08:38:20;19.20;1.00
25811;DHT22;13645;52.460;13.910;2023-06-14T08:40:50;19.10;1.00
25811;DHT22;13645;52.460;13.910;2023-06-14T08:43:18;19.30;1.00
25811;DHT22;13645;52.460;13.910;2023-06-14T08:45:46;19.40;1.00
25811;DHT22;13645;52.460;13.910;2023-06-14T08:48:15;19.50;1.00
25811;DHT22;13645;52.460;13.910;2023-06-14T08:50:44;19.80;1.00
25811;DHT22;13645;52.460;13.910;2023-06-14T08:53:14;19.80;1.00
25811;DHT22;13645;52.460;13.910;2023-06-14T08:55:42;20.00;1.00
25811;DHT22;13645;52.460;13.910;2023-06-14T08:58:10;20.10;1.00
25811;DHT22;13645;52.460;13.910;2023-06-14T09:00:41;20.30;1.00
25811;DHT22;13645;52.460;13.910;2023-06-14T09:03:09;20.40;1.00
25811;DHT22;13645;52.460;13.910;2023-06-14T09:05:40;20.50;1.00
25811;DHT22;13645;52.460;13.910;2023-06-14T09:08:07;20.50;1.00
25811;DHT22;13645;52.460;13.910;2023-06-14T09:10:34;20.30;1.00
25811;DHT22;13645;52.460;13.910;2023-06-14T09:13:04;20.10;1.00
25811;DHT22;13645;52.460;13.910;2023-06-14T09:15:31;20.00;1.00
25811;DHT22;13645;52.460;13.910;2023-06-14T09:18:01;20.00;1.00
25811;DHT22;13645;52.460;13.910;2023-06-14T09:20:29;20.10;1.00
25811;DHT22;13645;52.460;13.910;2023-06-14T09:22:56;20.00;1.00
25811;DHT22;13645;52.460;13.910;2023-06-14T09:25:23;20.00;1.00
25811;DHT22;13645;52.460;13.910;2023-06-14T09:28:07;20.10;1.00
25811;DHT22;13645;52.460;13.910;2023-06-14T09:30:36;20.10;1.00
25811;DHT22;13645;52.460;13.910;2023-06-14T09:33:03;20.20;1.00
25811;DHT22;13645;52.460;13.910;2023-06-14T09:35:31;20.20;1.00
25811;DHT22;13645;52.460;13.910;2023-06-14T09:37:58;20.40;1.00
25811;DHT22;13645;52.460;13.910;2023-06-14T09:40:26;20.50;1.00
25811;DHT22;13645;52.460;13.910;2023-06-14T09:42:54;20.70;1.00
25811;DHT22;13645;52.460;13.910;2023-06-14T09:45:24;20.90;1.00
25811;DHT22;13645;52.460;13.910;2023-06-14T09:47:52;21.10;1.00
25811;DHT22;13645;52.460;13.910;2023-06-14T09:50:33;21.10;1.00
25811;DHT22;13645;52.460;13.910;2023-06-14T09:53:07;21.10;1.00
25811;DHT22;13645;52.460;13.910;2023-06-14T09:55:37;21.00;1.00
25811;DHT22;13645;52.460;13.910;2023-06-14T09:58:06;21.00;1.00
25811;DHT22;13645;52.460;13.910;2023-06-14T10:00:36;21.00;1.00
25811;DHT22;13645;52.460;13.910;2023-06-14T10:03:11;20.90;1.00
25811;DHT22;13645;52.460;13.910;2023-06-14T10:05:41;20.90;1.00
25811;DHT22;13645;52.460;13.910;2023-06-14T10:08:11;20.70;1.00
25811;DHT22;13645;52.460;13.910;2023-06-14T10:10:40;20.80;1.00
25811;DHT22;13645;52.460;13.910;2023-06-14T10:13:07;21.00;1.00
25811;DHT22;13645;52.460;13.910;2023-06-14T10:21:55;21.20;1.00
25811;DHT22;13645;52.460;13.910;2023-06-14T10:24:32;21.30;1.00
25811;DHT22;13645;52.460;13.910;2023-06-14T10:27:00;21.30;1.00
25811;DHT22;13645;52.460;13.910;2023-06-14T10:29:28;21.40;1.00
25811;DHT22;13645;52.460;13.910;2023-06-14T10:32:00;21.50;1.00
25811;DHT22;13645;52.460;13.910;2023-06-14T10:34:29;21.70;1.00
25811;DHT22;13645;52.460;13.910;2023-06-14T10:37:07;21.90;1.00
25811;DHT22;13645;52.460;13.910;2023-06-14T10:39:42;22.00;99.90
25811;DHT22;13645;52.460;13.910;2023-06-14T10:42:10;22.10;99.90
25811;DHT22;13645;52.460;13.910;2023-06-14T10:47:07;22.10;99.90
25811;DHT22;13645;52.460;13.910;2023-06-14T10:49:47;21.90;99.90
25811;DHT22;13645;52.460;13.910;2023-06-14T10:52:15;21.90;99.90
25811;DHT22;13645;52.460;13.910;2023-06-14T11:00:28;21.50;99.90
25811;DHT22;13645;52.460;13.910;2023-06-14T11:03:06;21.50;99.90
25811;DHT22;13645;52.460;13.910;2023-06-14T11:11:00;22.10;99.90
25811;DHT22;13645;52.460;13.910;2023-06-14T11:13:29;22.60;99.90
25811;DHT22;13645;52.460;13.910;2023-06-14T11:15:58;23.10;99.90
25811;DHT22;13645;52.460;13.910;2023-06-14T11:18:25;23.80;51.50
25811;DHT22;13645;52.460;13.910;2023-06-14T11:20:54;24.10;1.00
25811;DHT22;13645;52.460;13.910;2023-06-14T11:23:22;24.90;99.90
25811;DHT22;13645;52.460;13.910;2023-06-14T11:25:53;25.10;1.00
25811;DHT22;13645;52.460;13.910;2023-06-14T11:28:19;25.60;99.90
25811;DHT22;13645;52.460;13.910;2023-06-14T11:30:49;26.30;99.90
25811;DHT22;13645;52.460;13.910;2023-06-14T11:33:25;26.90;66.40
25811;DHT22;13645;52.460;13.910;2023-06-14T11:35:52;27.00;99.90
25811;DHT22;13645;52.460;13.910;2023-06-14T11:38:19;27.50;99.90
25811;DHT22;13645;52.460;13.910;2023-06-14T11:40:46;27.90;99.90
25811;DHT22;13645;52.460;13.910;2023-06-14T11:43:13;28.40;99.90
25811;DHT22;13645;52.460;13.910;2023-06-14T11:45:40;28.40;99.90
25811;DHT22;13645;52.460;13.910;2023-06-14T11:48:07;28.20;1.00
25811;DHT22;13645;52.460;13.910;2023-06-14T11:50:38;28.10;1.00
25811;DHT22;13645;52.460;13.910;2023-06-14T11:53:05;28.50;1.00
25811;DHT22;13645;52.460;13.910;2023-06-14T11:55:37;28.90;1.00
25811;DHT22;13645;52.460;13.910;2023-06-14T11:58:05;28.80;99.90
25811;DHT22;13645;52.460;13.910;2023-06-14T12:00:32;29.20;99.90
25811;DHT22;13645;52.460;13.910;2023-06-14T12:03:01;29.60;99.90
25811;DHT22;13645;52.460;13.910;2023-06-14T12:05:29;29.70;99.90
25811;DHT22;13645;52.460;13.910;2023-06-14T12:08:01;29.80;58.60
25811;DHT22;13645;52.460;13.910;2023-06-14T12:10:29;30.20;61.30
25811;DHT22;13645;52.460;13.910;2023-06-14T12:12:59;30.30;33.60
25811;DHT22;13645;52.460;13.910;2023-06-14T12:15:29;30.30;3.90
25811;DHT22;13645;52.460;13.910;2023-06-14T12:17:57;30.50;1.00
25811;DHT22;13645;52.460;13.910;2023-06-14T12:20:29;30.00;1.00
25811;DHT22;13645;52.460;13.910;2023-06-14T12:22:59;30.20;1.00
25811;DHT22;13645;52.460;13.910;2023-06-14T12:25:29;30.20;1.00
25811;DHT22;13645;52.460;13.910;2023-06-14T12:27:58;29.40;1.00
25811;DHT22;13645;52.460;13.910;2023-06-14T12:30:25;29.10;1.00
25811;DHT22;13645;52.460;13.910;2023-06-14T12:32:52;29.00;1.00
25811;DHT22;13645;52.460;13.910;2023-06-14T12:35:19;29.20;1.00
25811;DHT22;13645;52.460;13.910;2023-06-14T12:37:46;29.50;1.00
25811;DHT22;13645;52.460;13.910;2023-06-14T12:40:14;29.80;1.00
25811;DHT22;13645;52.460;13.910;2023-06-14T12:42:41;30.20;1.00
25811;DHT22;13645;52.460;13.910;2023-06-14T12:45:08;30.00;1.00
25811;DHT22;13645;52.460;13.910;2023-06-14T12:47:36;30.00;1.00
25811;DHT22;13645;52.460;13.910;2023-06-14T12:50:03;30.00;1.00
25811;DHT22;13645;52.460;13.910;2023-06-14T12:52:30;30.20;1.00
25811;DHT22;13645;52.460;13.910;2023-06-14T12:54:57;30.40;99.90
25811;DHT22;13645;52.460;13.910;2023-06-14T12:57:23;30.80;99.90
25811;DHT22;13645;52.460;13.910;2023-06-14T12:59:51;31.10;99.90
25811;DHT22;13645;52.460;13.910;2023-06-14T13:02:19;30.50;99.90
25811;DHT22;13645;52.460;13.910;2023-06-14T13:04:51;29.90;99.90
25811;DHT22;13645;52.460;13.910;2023-06-14T13:07:18;29.40;99.90
25811;DHT22;13645;52.460;13.910;2023-06-14T13:09:45;29.00;99.90
25811;DHT22;13645;52.460;13.910;2023-06-14T13:12:12;28.70;99.90
25811;DHT22;13645;52.460;13.910;2023-06-14T13:14:40;29.00;1.00
25811;DHT22;13645;52.460;13.910;2023-06-14T13:17:10;29.60;1.00
25811;DHT22;13645;52.460;13.910;2023-06-14T13:19:37;29.60;99.90
25811;DHT22;13645;52.460;13.910;2023-06-14T13:22:04;29.20;99.90
25811;DHT22;13645;52.460;13.910;2023-06-14T13:24:31;28.80;99.90
25811;DHT22;13645;52.460;13.910;2023-06-14T13:26:58;28.30;99.90
25811;DHT22;13645;52.460;13.910;2023-06-14T13:29:25;27.80;99.90
25811;DHT22;13645;52.460;13.910;2023-06-14T13:31:53;27.50;99.90
25811;DHT22;13645;52.460;13.910;2023-06-14T13:34:20;27.20;99.90
25811;DHT22;13645;52.460;13.910;2023-06-14T13:36:48;27.00;99.90
25811;DHT22;13645;52.460;13.910;2023-06-14T13:39:16;26.90;1.00
25811;DHT22;13645;52.460;13.910;2023-06-14T13:41:43;26.80;1.00
25811;DHT22;13645;52.460;13.910;2023-06-14T13:44:10;27.00;1.00
25811;DHT22;13645;52.460;13.910;2023-06-14T13:46:58;27.30;1.00
25811;DHT22;13645;52.460;13.910;2023-06-14T13:49:43;27.30;1.00
25811;DHT22;13645;52.460;13.910;2023-06-14T13:52:27;27.30;1.00
25811;DHT22;13645;52.460;13.910;2023-06-14T13:55:11;27.20;1.00
25811;DHT22;13645;52.460;13.910;2023-06-14T13:57:55;26.90;1.00
25811;DHT22;13645;52.460;13.910;2023-06-14T14:00:41;26.70;1.00
25811;DHT22;13645;52.460;13.910;2023-06-14T14:03:25;27.20;1.00
25811;DHT22;13645;52.460;13.910;2023-06-14T14:06:09;27.80;1.00
25811;DHT22;13645;52.460;13.910;2023-06-14T14:08:53;27.90;1.00
25811;DHT22;13645;52.460;13.910;2023-06-14T14:11:38;27.60;99.90
25811;DHT22;13645;52.460;13.910;2023-06-14T14:14:23;27.40;1.00
25811;DHT22;13645;52.460;13.910;2023-06-14T14:17:08;27.40;1.00
25811;DHT22;13645;52.460;13.910;2023-06-14T14:19:53;27.30;1.00
25811;DHT22;13645;52.460;13.910;2023-06-14T14:22:38;27.00;1.00
25811;DHT22;13645;52.460;13.910;2023-06-14T14:25:22;26.60;1.00
25811;DHT22;13645;52.460;13.910;2023-06-14T14:28:07;26.40;1.00
25811;DHT22;13645;52.460;13.910;2023-06-14T14:30:52;26.20;1.00
25811;DHT22;13645;52.460;13.910;2023-06-14T14:33:20;26.00;1.00
25811;DHT22;13645;52.460;13.910;2023-06-14T14:35:47;26.00;1.00
25811;DHT22;13645;52.460;13.910;2023-06-14T14:38:14;25.90;1.00
25811;DHT22;13645;52.460;13.910;2023-06-14T14:40:44;25.90;1.00
25811;DHT22;13645;52.460;13.910;2023-06-14T14:43:11;25.80;1.00
25811;DHT22;13645;52.460;13.910;2023-06-14T14:45:38;25.80;1.00
25811;DHT22;13645;52.460;13.910;2023-06-14T14:48:05;25.70;1.00
25811;DHT22;13645;52.460;13.910;2023-06-14T14:50:33;25.60;1.00
25811;DHT22;13645;52.460;13.910;2023-06-14T14:53:00;25.50;1.00
25811;DHT22;13645;52.460;13.910;2023-06-14T14:55:27;25.50;1.00
25811;DHT22;13645;52.460;13.910;2023-06-14T14:57:53;25.40;1.00
25811;DHT22;13645;52.460;13.910;2023-06-14T15:00:20;25.40;1.00
25811;DHT22;13645;52.460;13.910;2023-06-14T15:02:47;25.30;1.00
25811;DHT22;13645;52.460;13.910;2023-06-14T15:05:14;25.30;1.00
25811;DHT22;13645;52.460;13.910;2023-06-14T15:07:41;25.30;1.00
25811;DHT22;13645;52.460;13.910;2023-06-14T15:10:08;25.20;1.00
25811;DHT22;13645;52.460;13.910;2023-06-14T15:12:35;25.00;1.00
25811;DHT22;13645;52.460;13.910;2023-06-14T15:15:03;24.90;1.00
25811;DHT22;13645;52.460;13.910;2023-06-14T15:17:30;24.90;1.00
25811;DHT22;13645;52.460;13.910;2023-06-14T15:19:57;24.90;1.00
25811;DHT22;13645;52.460;13.910;2023-06-14T15:22:24;24.90;1.00
25811;DHT22;13645;52.460;13.910;2023-06-14T15:24:51;24.80;1.00
25811;DHT22;13645;52.460;13.910;2023-06-14T15:27:17;24.70;1.00
25811;DHT22;13645;52.460;13.910;2023-06-14T15:29:44;24.90;1.00
25811;DHT22;13645;52.460;13.910;2023-06-14T15:32:15;24.90;1.00
25811;DHT22;13645;52.460;13.910;2023-06-14T15:34:42;24.90;1.00
25811;DHT22;13645;52.460;13.910;2023-06-14T15:37:08;24.90;1.00
25811;DHT22;13645;52.460;13.910;2023-06-14T15:39:35;24.90;1.00
25811;DHT22;13645;52.460;13.910;2023-06-14T15:42:03;24.90;1.00
25811;DHT22;13645;52.460;13.910;2023-06-14T15:44:30;25.00;1.00
25811;DHT22;13645;52.460;13.910;2023-06-14T15:46:57;25.20;1.00
25811;DHT22;13645;52.460;13.910;2023-06-14T15:49:24;25.40;1.00
25811;DHT22;13645;52.460;13.910;2023-06-14T15:51:50;25.30;1.00
25811;DHT22;13645;52.460;13.910;2023-06-14T15:54:17;25.10;1.00
25811;DHT22;13645;52.460;13.910;2023-06-14T15:56:44;25.10;1.00
25811;DHT22;13645;52.460;13.910;2023-06-14T15:59:11;25.20;1.00